createdAt,value
2018-05-17T00:01:16.368Z,21.72
2018-05-17T00:03:44.904Z,21.41
2018-05-17T00:06:13.383Z,21.39
2018-05-17T00:08:41.884Z,21.39
2018-05-17T00:11:10.333Z,21.28
2018-05-17T00:13:38.849Z,21.32
2018-05-17T00:16:07.332Z,21.30
2018-05-17T00:18:35.877Z,21.24
2018-05-17T00:21:04.357Z,21.12
2018-05-17T00:23:32.873Z,21.12
2018-05-17T00:26:01.352Z,21.12
2018-05-17T00:28:29.825Z,21.03
2018-05-17T00:30:58.348Z,20.87
2018-05-17T00:33:26.834Z,20.75
2018-05-17T00:35:55.316Z,20.66
2018-05-17T00:38:23.860Z,20.62
2018-05-17T00:40:52.337Z,20.61
2018-05-17T00:43:20.848Z,20.56
2018-05-17T00:45:49.320Z,20.49
2018-05-17T00:48:17.841Z,20.43
2018-05-17T00:50:46.367Z,20.24
2018-05-17T00:53:26.597Z,20.31
2018-05-17T00:55:55.104Z,20.22
2018-05-17T00:58:23.583Z,20.17
2018-05-17T01:00:52.169Z,20.13
2018-05-17T01:03:20.656Z,20.15
2018-05-17T01:05:49.133Z,20.12
2018-05-17T01:08:17.617Z,20.15
2018-05-17T01:10:46.133Z,20.15
2018-05-17T01:13:14.604Z,20.18
2018-05-17T01:15:43.150Z,20.22
2018-05-17T01:18:11.632Z,20.13
2018-05-17T01:20:40.133Z,20.07
2018-05-17T01:23:08.673Z,20.07
2018-05-17T01:25:37.152Z,20.06
2018-05-17T01:28:05.692Z,20.08
2018-05-17T01:30:34.207Z,20.09
2018-05-17T01:33:02.713Z,20.10
2018-05-17T01:35:31.184Z,20.12
2018-05-17T01:38:11.371Z,20.19
2018-05-17T01:40:39.931Z,20.10
2018-05-17T01:43:08.480Z,20.04
2018-05-17T01:45:36.955Z,20.01
2018-05-17T01:48:05.552Z,20.09
2018-05-17T01:50:34.056Z,20.07
2018-05-17T01:53:02.551Z,19.98
2018-05-17T01:55:31.064Z,20.05
2018-05-17T01:57:59.544Z,20.08
2018-05-17T02:00:28.057Z,20.05
2018-05-17T02:02:56.564Z,20.14
2018-05-17T02:05:25.129Z,20.17
2018-05-17T02:07:53.600Z,20.23
2018-05-17T02:10:22.120Z,20.21
2018-05-17T02:12:50.679Z,20.29
2018-05-17T02:15:19.200Z,20.32
2018-05-17T02:17:47.712Z,20.33
2018-05-17T02:20:16.228Z,20.40
2018-05-17T02:22:44.741Z,20.38
2018-05-17T02:25:13.217Z,20.43
2018-05-17T02:27:41.738Z,20.45
2018-05-17T02:30:10.218Z,20.47
2018-05-17T02:32:38.701Z,20.48
2018-05-17T02:35:07.220Z,20.50
2018-05-17T02:37:35.711Z,20.55
2018-05-17T02:40:04.285Z,20.56
2018-05-17T02:42:32.793Z,20.54
2018-05-17T02:45:01.316Z,20.50
2018-05-17T02:47:29.840Z,20.59
2018-05-17T02:49:58.310Z,20.56
2018-05-17T02:52:26.818Z,20.57
2018-05-17T02:54:55.288Z,20.57
2018-05-17T02:57:23.813Z,20.61
2018-05-17T02:59:52.304Z,20.57
2018-05-17T03:02:20.773Z,20.57
2018-05-17T03:04:49.432Z,20.47
2018-05-17T03:07:17.950Z,20.52
2018-05-17T03:09:46.477Z,20.56
2018-05-17T03:12:15.009Z,20.55
2018-05-17T03:14:43.486Z,20.55
2018-05-17T03:17:11.967Z,20.59
2018-05-17T03:19:40.481Z,20.58
2018-05-17T03:22:08.968Z,20.62
2018-05-17T03:24:37.514Z,20.63
2018-05-17T03:27:05.996Z,20.62
2018-05-17T03:29:34.519Z,20.61
2018-05-17T03:32:02.993Z,20.57
2018-05-17T03:34:31.512Z,20.61
2018-05-17T03:36:59.977Z,20.65
2018-05-17T03:39:28.496Z,20.69
2018-05-17T03:41:57.017Z,20.71
2018-05-17T03:44:25.488Z,20.73
2018-05-17T03:46:54.020Z,20.65
2018-05-17T03:49:22.536Z,20.75
2018-05-17T03:51:51.021Z,20.76
2018-05-17T03:54:19.491Z,20.79
2018-05-17T03:56:48.053Z,20.80
2018-05-17T03:59:16.574Z,20.67
2018-05-17T04:01:56.824Z,20.71
2018-05-17T04:04:36.964Z,20.77
2018-05-17T04:07:05.466Z,20.71
2018-05-17T04:09:33.980Z,20.87
2018-05-17T04:12:02.497Z,20.89
2018-05-17T04:14:30.988Z,20.90
2018-05-17T04:16:59.509Z,20.95
2018-05-17T04:19:27.988Z,21.01
2018-05-17T04:21:56.518Z,21.06
2018-05-17T04:24:25.044Z,20.99
2018-05-17T04:26:53.601Z,21.10
2018-05-17T04:29:22.134Z,21.19
2018-05-17T04:31:50.616Z,21.29
2018-05-17T04:34:19.120Z,21.40
2018-05-17T04:36:47.645Z,21.55
2018-05-17T04:39:16.204Z,21.37
2018-05-17T04:41:44.698Z,21.46
2018-05-17T04:44:13.203Z,21.50
2018-05-17T04:46:41.729Z,21.35
2018-05-17T04:49:10.221Z,21.50
2018-05-17T04:51:38.764Z,21.58
2018-05-17T04:54:07.261Z,21.42
2018-05-17T04:56:35.792Z,21.43
2018-05-17T04:59:04.296Z,21.33
2018-05-17T05:01:32.842Z,21.22
2018-05-17T05:04:01.359Z,21.38
2018-05-17T05:06:29.905Z,21.25
2018-05-17T05:08:58.396Z,21.18
2018-05-17T05:11:26.915Z,21.06
2018-05-17T05:13:55.545Z,21.05
2018-05-17T05:16:24.069Z,21.09
2018-05-17T05:18:52.592Z,21.27
2018-05-17T05:21:21.116Z,21.17
2018-05-17T05:23:50.525Z,21.29
2018-05-17T05:26:19.049Z,21.26
2018-05-17T05:28:47.585Z,21.38
2018-05-17T05:31:16.108Z,21.55
2018-05-17T05:33:44.644Z,21.80
2018-05-17T05:36:13.168Z,21.95
2018-05-17T05:38:42.632Z,22.07
2018-05-17T05:41:11.128Z,22.21
2018-05-17T05:43:39.612Z,22.32
2018-05-17T05:46:08.201Z,22.48
2018-05-17T05:48:36.689Z,22.85
2018-05-17T05:51:05.217Z,23.32
2018-05-17T05:53:33.785Z,23.53
2018-05-17T05:56:03.032Z,23.58
2018-05-17T05:58:31.508Z,24.08
2018-05-17T06:01:00.024Z,24.27
2018-05-17T06:03:28.502Z,24.53
2018-05-17T06:05:57.052Z,24.67
2018-05-17T06:08:25.577Z,24.45
2018-05-17T06:10:54.096Z,24.59
2018-05-17T06:13:22.618Z,24.76
2018-05-17T06:15:51.098Z,25.16
2018-05-17T06:18:19.608Z,25.29
2018-05-17T06:21:03.607Z,25.20
2018-05-17T06:23:53.660Z,25.34
2018-05-17T06:26:22.173Z,25.57
2018-05-17T06:28:50.693Z,25.78
2018-05-17T06:31:20.376Z,25.95
2018-05-17T06:33:48.909Z,25.89
2018-05-17T06:36:17.392Z,25.77
2018-05-17T06:38:46.495Z,26.13
2018-05-17T06:41:15.282Z,26.52
2018-05-17T06:43:43.841Z,26.46
2018-05-17T06:46:12.344Z,26.53
2018-05-17T06:48:40.877Z,26.39
2018-05-17T06:51:09.408Z,26.41
2018-05-17T06:53:37.894Z,26.43
2018-05-17T06:56:06.448Z,26.41
2018-05-17T06:58:34.952Z,26.37
2018-05-17T07:01:03.583Z,26.70
2018-05-17T07:03:32.100Z,26.53
2018-05-17T07:06:00.634Z,27.07
2018-05-17T07:08:29.160Z,27.50
2018-05-17T07:10:57.676Z,27.34
2018-05-17T07:13:26.190Z,27.50
2018-05-17T07:15:54.800Z,27.31
2018-05-17T07:18:23.371Z,26.98
2018-05-17T07:20:51.841Z,27.19
2018-05-17T07:23:20.317Z,27.50
2018-05-17T07:25:48.850Z,27.79
2018-05-17T07:28:17.335Z,27.82
2018-05-17T07:30:45.971Z,27.49
2018-05-17T07:33:14.486Z,27.51
2018-05-17T07:35:43.045Z,27.43
2018-05-17T07:38:11.566Z,27.60
2018-05-17T07:40:40.116Z,27.53
2018-05-17T07:43:08.682Z,27.40
2018-05-17T07:45:37.177Z,27.32
2018-05-17T07:48:05.713Z,27.27
2018-05-17T07:50:34.273Z,27.42
2018-05-17T07:53:02.761Z,27.55
2018-05-17T07:55:31.350Z,27.80
2018-05-17T07:57:59.844Z,28.05
2018-05-17T08:00:28.376Z,28.00
2018-05-17T08:02:56.852Z,28.11
2018-05-17T08:05:25.362Z,28.08
2018-05-17T08:07:53.864Z,27.71
2018-05-17T08:10:22.471Z,28.02
2018-05-17T08:12:51.027Z,27.94
2018-05-17T08:15:19.516Z,27.96
2018-05-17T08:17:48.057Z,28.09
2018-05-17T08:20:16.568Z,27.90
2018-05-17T08:22:45.077Z,28.01
2018-05-17T08:25:13.629Z,28.01
2018-05-17T08:27:42.238Z,28.06
2018-05-17T08:30:10.716Z,28.11
2018-05-17T08:32:39.278Z,28.34
2018-05-17T08:35:07.766Z,28.38
2018-05-17T08:37:36.252Z,28.51
2018-05-17T08:40:04.842Z,28.09
2018-05-17T08:42:33.383Z,28.33
2018-05-17T08:45:01.921Z,28.21
2018-05-17T08:47:30.401Z,28.28
2018-05-17T08:49:58.925Z,28.51
2018-05-17T08:52:27.492Z,28.74
2018-05-17T08:54:55.972Z,28.91
2018-05-17T08:57:24.490Z,29.08
2018-05-17T08:59:53.017Z,29.28
2018-05-17T09:02:21.550Z,29.14
2018-05-17T09:04:50.031Z,29.10
2018-05-17T09:07:18.560Z,29.11
2018-05-17T09:09:47.045Z,29.28
2018-05-17T09:12:15.580Z,29.29
2018-05-17T09:14:44.092Z,29.29
2018-05-17T09:17:12.609Z,29.33
2018-05-17T09:19:41.128Z,29.38
2018-05-17T09:22:09.630Z,29.41
2018-05-17T09:24:38.170Z,29.27
2018-05-17T09:27:06.649Z,29.27
2018-05-17T09:29:35.172Z,29.38
2018-05-17T09:32:03.649Z,29.27
2018-05-17T09:34:32.230Z,29.62
2018-05-17T09:37:00.697Z,29.64
2018-05-17T09:39:29.229Z,29.32
2018-05-17T09:41:57.709Z,29.03
2018-05-17T09:44:26.212Z,28.74
2018-05-17T09:46:54.705Z,28.74
2018-05-17T09:49:23.225Z,28.84
2018-05-17T09:51:51.898Z,28.69
2018-05-17T09:54:20.446Z,28.91
2018-05-17T09:56:48.946Z,28.96
2018-05-17T09:59:17.493Z,29.06
2018-05-17T10:01:45.966Z,29.21
2018-05-17T10:04:14.519Z,29.42
2018-05-17T10:06:43.013Z,29.30
2018-05-17T10:09:11.477Z,29.50
2018-05-17T10:11:39.982Z,29.68
2018-05-17T10:14:08.501Z,29.32
2018-05-17T10:16:37.021Z,29.62
2018-05-17T10:19:05.500Z,29.80
2018-05-17T10:21:34.027Z,29.69
2018-05-17T10:24:02.510Z,29.54
2018-05-17T10:26:31.032Z,29.64
2018-05-17T10:28:59.534Z,29.53
2018-05-17T10:31:28.065Z,29.82
2018-05-17T10:33:56.582Z,29.95
2018-05-17T10:36:25.053Z,30.04
2018-05-17T10:38:53.588Z,29.94
2018-05-17T10:41:22.069Z,29.91
2018-05-17T10:43:50.604Z,29.80
2018-05-17T10:46:19.108Z,29.70
2018-05-17T10:48:47.677Z,29.66
2018-05-17T10:51:16.178Z,30.03
2018-05-17T10:53:44.656Z,30.16
2018-05-17T10:56:13.201Z,30.13
2018-05-17T10:58:41.684Z,30.32
2018-05-17T11:01:10.201Z,30.50
2018-05-17T11:03:38.676Z,30.34
2018-05-17T11:06:07.197Z,30.38
2018-05-17T11:08:35.679Z,30.58
2018-05-17T11:11:04.224Z,30.51
2018-05-17T11:13:32.709Z,30.63
2018-05-17T11:16:01.232Z,30.44
2018-05-17T11:18:29.716Z,30.57
2018-05-17T11:20:58.233Z,30.66
2018-05-17T11:23:26.733Z,30.65
2018-05-17T11:25:55.347Z,30.74
2018-05-17T11:28:23.799Z,30.76
2018-05-17T11:30:52.447Z,30.91
2018-05-17T11:33:20.964Z,30.57
2018-05-17T11:35:49.491Z,31.00
2018-05-17T11:38:18.059Z,30.98
2018-05-17T11:40:46.585Z,31.14
2018-05-17T11:43:15.108Z,31.22
2018-05-17T11:45:43.884Z,31.04
2018-05-17T11:48:12.505Z,31.29
2018-05-17T11:50:41.001Z,31.20
2018-05-17T11:53:09.542Z,30.84
2018-05-17T11:55:38.016Z,31.07
2018-05-17T11:58:06.492Z,31.08
2018-05-17T12:00:35.012Z,30.89
2018-05-17T12:03:03.516Z,31.17
2018-05-17T12:05:32.014Z,31.36
2018-05-17T12:08:00.470Z,31.45
2018-05-17T12:10:28.978Z,31.35
2018-05-17T12:12:57.449Z,31.48
2018-05-17T12:15:25.960Z,30.99
2018-05-17T12:17:54.452Z,31.21
2018-05-17T12:20:22.942Z,31.38
2018-05-17T12:22:51.499Z,31.41
2018-05-17T12:25:19.980Z,31.58
2018-05-17T12:27:48.501Z,31.52
2018-05-17T12:30:16.992Z,31.66
2018-05-17T12:32:45.654Z,31.78
2018-05-17T12:35:14.215Z,31.85
2018-05-17T12:37:42.720Z,31.98
2018-05-17T12:40:11.224Z,31.90
2018-05-17T12:42:39.728Z,31.61
2018-05-17T12:45:08.195Z,31.30
2018-05-17T12:47:36.716Z,31.38
2018-05-17T12:50:05.239Z,31.30
2018-05-17T12:52:33.721Z,31.31
2018-05-17T12:55:02.311Z,31.43
2018-05-17T12:57:30.786Z,31.25
2018-05-17T12:59:59.264Z,31.24
2018-05-17T13:02:27.840Z,31.07
2018-05-17T13:04:56.333Z,30.87
2018-05-17T13:07:24.888Z,30.99
2018-05-17T13:09:53.411Z,30.97
2018-05-17T13:12:21.907Z,31.08
2018-05-17T13:14:50.464Z,30.99
2018-05-17T13:17:18.937Z,30.82
2018-05-17T13:19:47.460Z,30.50
2018-05-17T13:22:15.969Z,30.63
2018-05-17T13:24:44.452Z,30.56
2018-05-17T13:27:12.988Z,30.75
2018-05-17T13:29:41.505Z,30.79
2018-05-17T13:32:10.022Z,30.85
2018-05-17T13:34:38.536Z,30.91
2018-05-17T13:37:07.014Z,30.90
2018-05-17T13:39:35.532Z,31.01
2018-05-17T13:42:04.056Z,30.92
2018-05-17T13:44:32.601Z,31.04
2018-05-17T13:47:01.072Z,30.95
2018-05-17T13:49:29.573Z,31.03
2018-05-17T13:51:58.110Z,31.04
2018-05-17T13:54:26.644Z,31.04
2018-05-17T13:56:55.150Z,30.83
2018-05-17T13:59:23.633Z,31.00
2018-05-17T14:01:52.141Z,31.07
2018-05-17T14:04:20.609Z,30.95
2018-05-17T14:06:49.120Z,30.98
2018-05-17T14:09:17.632Z,31.04
2018-05-17T14:11:46.428Z,30.91
2018-05-17T14:14:15.025Z,30.95
2018-05-17T14:16:43.578Z,30.79
2018-05-17T14:19:12.060Z,30.54
2018-05-17T14:21:40.581Z,30.49
2018-05-17T14:24:09.068Z,30.39
2018-05-17T14:26:37.596Z,30.25
2018-05-17T14:29:06.196Z,30.15
2018-05-17T14:31:34.685Z,30.03
2018-05-17T14:34:03.204Z,29.88
2018-05-17T14:36:31.752Z,29.71
2018-05-17T14:39:00.293Z,29.43
2018-05-17T14:41:28.797Z,29.14
2018-05-17T14:43:57.272Z,28.98
2018-05-17T14:46:25.820Z,28.78
2018-05-17T14:48:54.305Z,28.49
2018-05-17T14:51:22.845Z,28.46
2018-05-17T14:53:51.336Z,28.52
2018-05-17T14:56:19.918Z,28.49
2018-05-17T14:58:48.469Z,28.56
2018-05-17T15:01:16.984Z,28.55
2018-05-17T15:03:45.479Z,28.33
2018-05-17T15:06:13.955Z,28.38
2018-05-17T15:08:42.566Z,28.29
2018-05-17T15:11:14.748Z,28.27
2018-05-17T15:13:39.548Z,28.29
2018-05-17T15:16:08.035Z,28.25
2018-05-17T15:18:36.558Z,28.17
2018-05-17T15:21:05.043Z,28.11
2018-05-17T15:23:33.548Z,28.06
2018-05-17T15:26:02.023Z,28.01
2018-05-17T15:28:30.540Z,27.95
2018-05-17T15:30:59.052Z,27.77
2018-05-17T15:33:27.528Z,27.74
2018-05-17T15:35:56.040Z,27.70
2018-05-17T15:38:24.547Z,27.59
2018-05-17T15:40:53.072Z,27.42
2018-05-17T15:43:21.584Z,26.68
2018-05-17T15:45:50.087Z,26.70
2018-05-17T15:48:18.714Z,26.76
2018-05-17T15:50:47.130Z,26.45
2018-05-17T15:53:15.659Z,26.54
2018-05-17T15:55:44.148Z,26.64
2018-05-17T15:58:12.661Z,26.71
2018-05-17T16:00:41.176Z,26.80
2018-05-17T16:03:09.702Z,26.84
2018-05-17T16:05:38.170Z,26.90
2018-05-17T16:08:06.649Z,26.96
2018-05-17T16:10:35.201Z,27.00
2018-05-17T16:13:03.688Z,27.03
2018-05-17T16:15:32.289Z,27.02
2018-05-17T16:18:00.756Z,27.01
2018-05-17T16:20:29.276Z,26.97
2018-05-17T16:22:57.756Z,26.88
2018-05-17T16:25:26.281Z,26.72
2018-05-17T16:27:54.756Z,26.72
2018-05-17T16:30:23.224Z,26.55
2018-05-17T16:32:51.728Z,26.63
2018-05-17T16:35:20.209Z,26.58
2018-05-17T16:37:48.732Z,26.50
2018-05-17T16:40:17.213Z,26.46
2018-05-17T16:42:45.783Z,26.36
2018-05-17T16:45:14.236Z,26.28
2018-05-17T16:47:42.753Z,26.29
2018-05-17T16:50:11.221Z,26.10
2018-05-17T16:52:39.814Z,26.09
2018-05-17T16:55:08.213Z,26.07
2018-05-17T16:57:36.737Z,25.89
2018-05-17T17:00:05.244Z,25.96
2018-05-17T17:02:33.760Z,25.86
2018-05-17T17:05:02.254Z,25.76
2018-05-17T17:07:30.772Z,25.68
2018-05-17T17:09:59.244Z,25.61
2018-05-17T17:12:27.748Z,25.54
2018-05-17T17:14:56.293Z,25.53
2018-05-17T17:17:24.854Z,25.50
2018-05-17T17:19:53.321Z,25.46
2018-05-17T17:22:21.847Z,25.35
2018-05-17T17:24:50.328Z,25.29
2018-05-17T17:27:18.841Z,25.17
2018-05-17T17:29:47.356Z,25.16
2018-05-17T17:32:15.836Z,25.10
2018-05-17T17:34:44.358Z,25.04
2018-05-17T17:37:12.876Z,24.90
2018-05-17T17:39:41.360Z,24.80
2018-05-17T17:42:09.828Z,24.77
2018-05-17T17:44:38.347Z,24.74
2018-05-17T17:47:06.841Z,24.70
2018-05-17T17:49:35.352Z,24.65
2018-05-17T17:52:03.835Z,24.61
2018-05-17T17:54:32.340Z,24.50
2018-05-17T17:57:00.844Z,24.36
2018-05-17T17:59:29.308Z,24.18
2018-05-17T18:01:57.862Z,24.28
2018-05-17T18:04:26.333Z,24.25
2018-05-17T18:06:54.848Z,24.08
2018-05-17T18:09:23.372Z,24.06
2018-05-17T18:11:51.830Z,24.07
2018-05-17T18:14:20.356Z,24.06
2018-05-17T18:16:49.683Z,24.06
2018-05-17T18:19:18.162Z,24.07
2018-05-17T18:21:46.678Z,24.02
2018-05-17T18:24:15.162Z,24.04
2018-05-17T18:26:43.664Z,23.96
2018-05-17T18:29:12.189Z,23.96
2018-05-17T18:31:40.676Z,23.89
2018-05-17T18:34:09.153Z,23.83
2018-05-17T18:36:37.627Z,23.77
2018-05-17T18:39:06.949Z,23.73
2018-05-17T18:41:35.476Z,23.69
2018-05-17T18:44:04.062Z,23.61
2018-05-17T18:46:32.529Z,23.59
2018-05-17T18:49:01.111Z,23.56
2018-05-17T18:51:29.596Z,23.54
2018-05-17T18:53:58.069Z,23.51
2018-05-17T18:56:26.582Z,23.45
2018-05-17T18:58:55.087Z,23.39
2018-05-17T19:01:23.602Z,23.31
2018-05-17T19:03:52.174Z,23.28
2018-05-17T19:06:20.748Z,23.22
2018-05-17T19:08:49.343Z,23.10
2018-05-17T19:11:17.772Z,23.08
2018-05-17T19:13:46.269Z,23.02
2018-05-17T19:16:14.784Z,22.94
2018-05-17T19:18:43.316Z,22.91
2018-05-17T19:21:11.840Z,22.95
2018-05-17T19:23:40.320Z,22.99
2018-05-17T19:26:08.840Z,22.92
2018-05-17T19:28:37.316Z,22.87
2018-05-17T19:31:05.808Z,22.86
2018-05-17T19:33:34.317Z,22.80
2018-05-17T19:36:02.827Z,22.67
2018-05-17T19:38:31.368Z,22.67
2018-05-17T19:40:59.832Z,22.66
2018-05-17T19:43:28.350Z,22.55
2018-05-17T19:45:56.860Z,22.64
2018-05-17T19:48:25.344Z,22.65
2018-05-17T19:50:53.817Z,22.69
2018-05-17T19:53:22.378Z,22.72
2018-05-17T19:55:50.888Z,22.73
2018-05-17T19:58:19.368Z,22.65
2018-05-17T20:00:47.851Z,22.62
2018-05-17T20:03:16.365Z,22.58
2018-05-17T20:05:44.836Z,22.61
2018-05-17T20:08:13.344Z,22.58
2018-05-17T20:10:41.821Z,22.55
2018-05-17T20:13:10.356Z,22.51
2018-05-17T20:15:38.851Z,22.48
2018-05-17T20:18:07.378Z,22.41
2018-05-17T20:20:35.896Z,22.46
2018-05-17T20:23:04.369Z,22.39
2018-05-17T20:25:32.883Z,22.35
2018-05-17T20:28:01.353Z,22.29
2018-05-17T20:30:29.872Z,22.29
2018-05-17T20:32:58.380Z,22.13
2018-05-17T20:35:26.915Z,22.24
2018-05-17T20:37:55.396Z,22.17
2018-05-17T20:40:23.926Z,22.14
2018-05-17T20:42:52.403Z,22.14
2018-05-17T20:45:20.963Z,22.08
2018-05-17T20:47:49.473Z,22.02
2018-05-17T20:50:17.953Z,21.96
2018-05-17T20:52:46.433Z,21.87
2018-05-17T20:55:15.015Z,21.73
2018-05-17T20:57:43.492Z,21.79
2018-05-17T21:00:11.993Z,21.74
2018-05-17T21:02:40.495Z,21.67
2018-05-17T21:05:09.008Z,21.61
2018-05-17T21:07:37.497Z,21.52
2018-05-17T21:10:06.029Z,21.44
2018-05-17T21:12:34.622Z,21.45
2018-05-17T21:15:03.189Z,21.44
2018-05-17T21:17:31.707Z,21.42
2018-05-17T21:20:00.197Z,21.42
2018-05-17T21:22:28.721Z,21.42
2018-05-17T21:24:57.216Z,21.42
2018-05-17T21:27:25.728Z,21.36
2018-05-17T21:29:54.240Z,21.44
2018-05-17T21:32:22.752Z,21.40
2018-05-17T21:34:51.232Z,21.36
2018-05-17T21:37:19.737Z,21.29
2018-05-17T21:39:48.236Z,21.29
2018-05-17T21:42:16.745Z,21.19
2018-05-17T21:44:45.218Z,21.09
2018-05-17T21:47:13.720Z,21.09
2018-05-17T21:49:42.205Z,21.05
2018-05-17T21:52:10.713Z,20.98
2018-05-17T21:54:39.199Z,20.94
2018-05-17T21:57:07.767Z,20.91
2018-05-17T21:59:36.262Z,20.73
2018-05-17T22:02:04.813Z,20.83
2018-05-17T22:04:33.328Z,20.83
2018-05-17T22:07:01.887Z,20.82
2018-05-17T22:09:30.409Z,20.71
2018-05-17T22:11:58.871Z,20.77
2018-05-17T22:14:27.437Z,20.76
2018-05-17T22:16:55.946Z,20.75
2018-05-17T22:19:24.459Z,20.63
2018-05-17T22:21:52.948Z,20.55
2018-05-17T22:24:21.428Z,20.59
2018-05-17T22:26:49.952Z,20.57
2018-05-17T22:29:18.425Z,20.57
2018-05-17T22:31:46.941Z,20.56
2018-05-17T22:34:15.425Z,20.54
2018-05-17T22:36:43.936Z,20.54
2018-05-17T22:39:12.416Z,20.53
2018-05-17T22:41:40.952Z,20.52
2018-05-17T22:44:09.434Z,20.50
2018-05-17T22:46:37.937Z,20.47
2018-05-17T22:49:06.409Z,20.44
2018-05-17T22:51:34.893Z,20.42
2018-05-17T22:54:03.440Z,20.38
2018-05-17T22:56:43.686Z,20.34
2018-05-17T22:59:12.149Z,20.27
2018-05-17T23:01:40.686Z,20.32
2018-05-17T23:04:09.168Z,20.30
2018-05-17T23:06:37.696Z,20.10
2018-05-17T23:09:06.224Z,19.98
2018-05-17T23:11:34.777Z,20.08
2018-05-17T23:14:03.267Z,20.04
2018-05-17T23:16:31.821Z,20.05
2018-05-17T23:19:00.340Z,20.01
2018-05-17T23:21:28.844Z,19.97
2018-05-17T23:23:57.447Z,19.97
2018-05-17T23:26:25.925Z,19.96
2018-05-17T23:28:54.448Z,19.97
2018-05-17T23:31:22.984Z,19.97
2018-05-17T23:33:51.564Z,19.99
2018-05-17T23:36:20.149Z,19.94
2018-05-17T23:38:48.650Z,19.87
2018-05-17T23:41:28.826Z,19.81
2018-05-17T23:43:57.278Z,19.73
2018-05-17T23:46:25.788Z,19.63
2018-05-17T23:48:54.257Z,19.70
2018-05-17T23:51:22.797Z,19.69
2018-05-17T23:53:51.300Z,19.76
2018-05-17T23:56:19.776Z,19.67
2018-05-17T23:58:48.999Z,19.56
